Delta, OH

9:48 AM EDT on September 01, 2014 (GMT -0400)
Toledo Express | Change Station
CLOSE
Current Station
Airport
Location: Toledo,
Elevation: 692 ft
Nearby Weather Stations

Elev 692 ft 41.59 °N, 83.81 °W | Updated 41 minutes ago

Mostly Cloudy
Mostly Cloudy
72 °F
Feels Like 72 °F
N
9
Wind Variable Wind from SSW
Gusts 18 mph

Today
High -- | Low -- °F
--% Chance of Precip.
Yesterday
High -- | Low -- °F
Precip. -- in
7:02 AM 8:09 PM
Waxing Crescent, 41% visible
Pressure 29.92 in
Visibility 10.0 miles
Clouds Mostly Cloudy 1000 ft
Mostly Cloudy 2200 ft
Dew Point 70 °F
Humidity 94%
Rainfall 0.05 in
Snow Depth Not available.
UV 1 out of 12
Pollen 9.00 out of 12
Air Quality Not available.
Flu Activity Not available.
SPECI KTOL 011307Z 20008G16KT 10SM BKN010 BKN022 22/21 A2992 RMK AO2

More Conditions Fewer Conditions

Pressure 29.92 in
Visibility 10.0 miles
Clouds Mostly Cloudy 1000 ft
Mostly Cloudy 2200 ft
Dew Point 70 °F
Humidity 94%
Rainfall 0.05 in
Snow Depth Not available.
UV 1 out of 12
Pollen 9.00 out of 12
Air Quality Not available.
Flu Activity Not available.
SPECI KTOL 011307Z 20008G16KT 10SM BKN010 BKN022 22/21 A2992 RMK AO2

More Conditions Fewer Conditions

10-Day Weather Forecast

Almanac

Astronomy

Sep. 01, 2014 Rise Set
Actual Time 7:02 AM EDT 8:09 PM EDT
Civil Twilight 6:33 AM EDT 8:37 PM EDT
Nautical Twilight 5:59 AM EDT 9:11 PM EDT
Astronomical Twilight 5:23 AM EDT 9:47 PM EDT
Moon 1:52 PM EDT No Moon Set
Length of Visible Light 14h 04m
Length of Day
13h 07m
Tomorrow will be 2m 40s shorter.
Waxing Crescent, 41% of the Moon is Illuminated
Today
Waxing Crescent
Sep 2
First Quarter
Sep 8
Full
Sep 15
Last Quarter
Sep 24
New

Today's Extremes

State Highs State Lows

Community

WunderPhotos

Upload Photos

1,749,222 photos uploaded!

Nearby

Snow Depth

Station Depth Elevation
No new snow has been reported.

Earthquake Activity

City Distance Mag. Time & Date
No recent earthquake activity has been reported nearby.
Minimum magnitude displayed is 2.5.

Coastal Water Temperatures

Place Temperature
No Stations Reporting

Nearby Weather Stations